Time;durP1;ratioP1;P1;durP2;ratioP2;P2;SDS_P1;SDS_P2;PMS_P1;PMS_P2;Temp;Humidity;BMP_temperature;BMP_pressure;BME280_temperature;BME280_humidity;BME280_pressure;Samples;Min_cycle;Max_cycle;Signal;HPM_P1;HPM_P2
2022/01/06 00:01:04;;;;;;;22.35;3.90;;;;;;;2.19;92.17;101533.44;5029771;28;20037;-80
2022/01/06 00:03:31;;;;;;;22.80;3.40;;;;;;;2.18;92.44;101529.06;5012763;28;20046;-80
2022/01/06 00:05:57;;;;;;;15.65;3.05;;;;;;;2.17;92.07;101534.25;5011644;28;20029;-80
2022/01/06 00:08:23;;;;;;;22.52;3.47;;;;;;;2.13;92.47;101536.81;5027620;28;20110;-81
2022/01/06 00:10:49;;;;;;;22.60;3.88;;;;;;;2.12;92.33;101548.09;5012142;28;20060;-81
2022/01/06 00:13:20;;;;;;;17.13;3.25;;;;;;;2.03;92.36;101536.53;4996869;28;20063;-80
2022/01/06 00:18:40;;;;;;;;;;;;;;;2.11;92.79;101545.44;4996654;28;20079;-80
2022/01/06 00:23:47;;;;;;;21.33;4.10;;;;;;;2.01;92.80;101546.97;5029727;28;20083;-80
2022/01/06 00:26:12;;;;;;;20.10;4.50;;;;;;;1.99;92.61;101555.59;5014470;28;20083;-80
2022/01/06 00:28:38;;;;;;;22.00;3.42;;;;;;;1.93;92.91;101556.34;5048495;28;20064;-80
2022/01/06 00:31:04;;;;;;;24.05;3.85;;;;;;;1.92;92.70;101558.03;5031665;28;20040;-80
2022/01/06 00:33:31;;;;;;;24.98;3.35;;;;;;;1.88;92.70;101564.06;5014686;28;20147;-81
2022/01/06 00:35:57;;;;;;;21.13;3.92;;;;;;;1.87;92.44;101566.63;5047872;28;20451;-81
2022/01/06 00:38:25;;;;;;;16.98;3.42;;;;;;;1.84;92.53;101564.81;5031660;28;20047;-80
2022/01/06 00:40:51;;;;;;;16.23;2.95;;;;;;;1.84;92.46;101574.38;5031962;28;20127;-80
2022/01/06 00:43:16;;;;;;;17.30;3.65;;;;;;;1.82;92.63;101573.47;5030592;28;20545;-80
2022/01/06 00:45:42;;;;;;;25.80;3.75;;;;;;;1.81;92.38;101579.53;5031788;28;20193;-80
2022/01/06 00:48:09;;;;;;;19.45;3.35;;;;;;;1.79;92.91;101573.38;5015093;28;20055;-80
2022/01/06 00:50:36;;;;;;;25.52;3.65;;;;;;;1.75;92.67;101575.03;5031974;28;20071;-80
2022/01/06 00:53:04;;;;;;;25.88;3.50;;;;;;;1.74;92.91;101586.31;5047526;28;20072;-80
2022/01/06 00:55:34;;;;;;;18.83;3.10;;;;;;;1.74;93.15;101586.31;5015074;28;20041;-80
2022/01/06 00:58:00;;;;;;;22.65;3.85;;;;;;;1.74;92.79;101582.84;5031383;28;20443;-80
2022/01/06 01:00:29;;;;;;;25.42;4.10;;;;;;;1.72;93.07;101577.56;5030616;28;20037;-80
2022/01/06 01:02:55;;;;;;;22.10;3.75;;;;;;;1.68;93.06;101570.47;5034780;28;20559;-80
2022/01/06 01:05:21;;;;;;;16.23;3.00;;;;;;;1.70;93.26;101581.84;5018970;28;20045;-80
2022/01/06 01:07:47;;;;;;;24.63;4.85;;;;;;;1.66;93.17;101570.47;5050036;28;20029;-80
2022/01/06 01:10:13;;;;;;;23.17;3.80;;;;;;;1.68;93.34;101573.09;5035292;28;20392;-80
2022/01/06 01:12:45;;;;;;;10.75;3.17;;;;;;;1.67;92.97;101580.03;5035171;28;20048;-80
2022/01/06 01:15:18;;;;;;;19.73;3.70;;;;;;;1.64;93.36;101572.13;5023987;28;20061;-80
2022/01/06 01:17:45;;;;;;;24.08;3.85;;;;;;;1.66;93.04;101574.81;5017146;28;20132;-80
2022/01/06 01:20:11;;;;;;;23.25;4.43;;;;;;;1.63;93.30;101572.09;4983429;28;20079;-80
2022/01/06 01:22:36;;;;;;;23.20;3.80;;;;;;;1.64;92.89;101569.53;5031382;28;20481;-80
2022/01/06 01:25:02;;;;;;;19.52;3.35;;;;;;;1.64;92.92;101581.69;5015101;28;20308;-80
2022/01/06 01:27:34;;;;;;;21.02;3.70;;;;;;;1.60;92.46;101580.72;5017096;28;20463;-80
2022/01/06 01:30:09;;;;;;;19.20;4.25;;;;;;;1.59;92.48;101584.19;5027219;28;20041;-80
2022/01/06 01:32:37;;;;;;;27.77;4.00;;;;;;;1.57;92.74;101585.88;5027494;28;20041;-80
2022/01/06 01:35:08;;;;;;;17.98;4.30;;;;;;;1.55;92.98;101589.28;5033156;28;20433;-80
2022/01/06 01:37:35;;;;;;;15.57;3.42;;;;;;;1.53;93.12;101602.28;5042027;28;20423;-80
2022/01/06 01:40:01;;;;;;;23.63;4.10;;;;;;;1.49;93.01;101598.72;5025100;28;20450;-80
2022/01/06 01:42:27;;;;;;;21.20;4.15;;;;;;;1.48;92.97;101601.28;5023653;28;20418;-80
2022/01/06 01:44:53;;;;;;;24.83;4.03;;;;;;;1.46;92.96;101614.31;5040268;28;20086;-80
2022/01/06 01:47:36;;;;;;;18.40;4.03;;;;;;;1.42;92.88;101616.78;5041311;28;20389;-80
2022/01/06 01:52:37;;;;;;;21.65;4.10;;;;;;;1.37;92.79;101626.22;5022682;28;20557;-80
2022/01/06 01:55:04;;;;;;;19.60;4.25;;;;;;;1.33;93.07;101625.22;5041403;28;20035;-80
2022/01/06 01:57:30;;;;;;;24.23;4.07;;;;;;;1.34;92.76;101634.84;5007433;28;20119;-80
2022/01/06 01:59:55;;;;;;;27.25;4.78;;;;;;;1.30;93.25;101638.19;5008781;28;20045;-80
2022/01/06 02:02:21;;;;;;;27.27;4.32;;;;;;;1.29;92.70;101647.75;5026294;28;20037;-80
2022/01/06 02:04:49;;;;;;;24.85;4.90;;;;;;;1.27;92.75;101652.03;5010863;28;20029;-80
2022/01/06 02:07:15;;;;;;;18.92;4.30;;;;;;;1.23;92.80;101649.28;5030965;28;20444;-80
2022/01/06 02:09:40;;;;;;;20.48;3.63;;;;;;;1.23;93.30;101651.91;5039953;28;20140;-80
2022/01/06 02:12:06;;;;;;;17.08;3.63;;;;;;;1.22;92.55;101651.00;5021026;28;20170;-80
2022/01/06 02:14:34;;;;;;;20.35;3.75;;;;;;;1.20;92.74;101655.31;5023999;28;20269;-80
2022/01/06 02:16:59;;;;;;;19.70;3.85;;;;;;;1.15;93.34;101653.41;5025284;28;20026;-80
2022/01/06 02:19:25;;;;;;;20.58;3.53;;;;;;;1.11;93.04;101647.19;5005980;28;20385;-80
2022/01/06 02:21:50;;;;;;;20.88;3.95;;;;;;;1.13;92.93;101658.56;5008836;28;20028;-80
2022/01/06 02:24:16;;;;;;;23.63;4.38;;;;;;;1.12;93.32;101662.03;5023939;28;20091;-80
2022/01/06 02:26:41;;;;;;;16.50;3.58;;;;;;;1.12;92.91;101659.41;5025832;28;20125;-80
2022/01/06 02:29:08;;;;;;;23.02;3.67;;;;;;;1.11;92.59;101659.34;5008481;28;20416;-80
2022/01/06 02:31:44;;;;;;;18.02;4.10;;;;;;;1.06;93.21;101659.22;5024118;28;20057;-80
2022/01/06 02:34:09;;;;;;;23.15;3.83;;;;;;;1.00;92.70;101653.81;5036095;28;20041;-80
2022/01/06 02:36:35;;;;;;;33.47;4.65;;;;;;;0.95;92.68;101663.25;5022453;28;20044;-80
2022/01/06 02:39:00;;;;;;;17.00;3.25;;;;;;;0.88;92.41;101666.50;5021583;28;20035;-80
2022/01/06 02:41:26;;;;;;;19.40;3.70;;;;;;;0.78;91.74;101668.81;5035812;28;20139;-80
2022/01/06 02:43:51;;;;;;;21.25;4.03;;;;;;;0.74;92.08;101663.44;5023623;28;20153;-80
2022/01/06 02:46:17;;;;;;;20.10;4.13;;;;;;;0.70;91.80;101669.41;5020018;28;20048;-80
2022/01/06 02:48:42;;;;;;;16.88;4.32;;;;;;;0.69;92.33;101665.03;5027928;28;20202;-80
2022/01/06 02:51:08;;;;;;;21.42;4.00;;;;;;;0.66;92.83;101658.00;5005946;28;20056;-80
2022/01/06 02:53:33;;;;;;;31.52;4.85;;;;;;;0.66;92.94;101659.72;5035458;28;20108;-80
2022/01/06 02:56:00;;;;;;;14.25;3.58;;;;;;;0.64;93.02;101657.97;5022774;28;20128;-80
2022/01/06 02:58:25;;;;;;;20.25;4.00;;;;;;;0.63;92.80;101657.91;5023084;28;20067;-80
2022/01/06 03:00:51;;;;;;;19.48;3.63;;;;;;;0.56;92.87;101653.31;5027387;28;20021;-81
2022/01/06 03:03:17;;;;;;;17.52;3.63;;;;;;;0.59;92.97;101659.53;5023147;28;20049;-80
2022/01/06 03:05:43;;;;;;;22.30;4.40;;;;;;;0.59;93.25;101659.53;5038170;28;20039;-80
2022/01/06 03:08:08;;;;;;;10.85;3.30;;;;;;;0.59;93.29;101664.75;5022523;28;20465;-80
2022/01/06 03:10:37;;;;;;;20.42;3.80;;;;;;;0.58;93.81;101662.09;5010950;28;20025;-80
2022/01/06 03:13:03;;;;;;;10.50;3.15;;;;;;;0.61;93.72;101659.56;5024834;28;20472;-80
2022/01/06 03:15:29;;;;;;;16.17;3.83;;;;;;;0.61;93.96;101675.22;5042048;28;20045;-80
2022/01/06 03:17:56;;;;;;;12.80;3.13;;;;;;;0.60;93.78;101683.88;5011840;28;20036;-80
2022/01/06 03:20:23;;;;;;;16.65;3.78;;;;;;;0.60;93.34;101678.66;5039631;28;20041;-80
2022/01/06 03:22:53;;;;;;;16.02;3.03;;;;;;;0.58;93.82;101683.81;5010225;28;20033;-80
2022/01/06 03:25:18;;;;;;;26.05;4.07;;;;;;;0.56;93.80;101685.47;5011380;28;20045;-80
2022/01/06 03:27:44;;;;;;;18.98;3.63;;;;;;;0.57;94.17;101700.31;5022483;28;20040;-80
2022/01/06 03:30:13;;;;;;;17.45;3.78;;;;;;;0.57;94.00;101694.19;5007402;28;20039;-80
2022/01/06 03:32:39;;;;;;;21.08;4.07;;;;;;;0.55;94.40;101699.38;5037610;28;20029;-80
2022/01/06 03:35:05;;;;;;;17.38;3.63;;;;;;;0.59;94.44;101697.72;5023392;28;20059;-81
2022/01/06 03:37:31;;;;;;;18.15;3.95;;;;;;;0.61;94.89;101689.13;5028675;28;20083;-81
2022/01/06 03:39:57;;;;;;;18.95;4.43;;;;;;;0.65;94.99;101679.69;5022684;28;20029;-81
2022/01/06 03:42:22;;;;;;;18.48;3.90;;;;;;;0.70;94.90;101672.03;5021987;28;20603;-80
2022/01/06 03:44:49;;;;;;;18.33;3.53;;;;;;;0.71;94.83;101674.66;5024050;28;20449;-80
2022/01/06 03:47:14;;;;;;;24.17;3.60;;;;;;;0.76;94.64;101682.63;5028512;28;20037;-81
2022/01/06 03:49:40;;;;;;;16.95;3.72;;;;;;;0.80;94.89;101681.91;5037753;28;20044;-80
2022/01/06 03:52:05;;;;;;;18.80;3.20;;;;;;;0.82;94.97;101688.06;5038845;28;20444;-80
2022/01/06 03:54:31;;;;;;;17.00;3.03;;;;;;;0.86;94.76;101692.50;5040101;28;20511;-81
2022/01/06 03:56:58;;;;;;;20.67;3.10;;;;;;;0.88;94.74;101690.84;5038559;28;20018;-81
2022/01/06 03:59:24;;;;;;;17.10;3.72;;;;;;;0.88;94.47;101689.97;5024569;28;20057;-81
2022/01/06 04:01:50;;;;;;;17.23;2.75;;;;;;;0.91;94.32;101692.66;5037668;28;20426;-80
2022/01/06 04:04:15;;;;;;;17.27;3.88;;;;;;;0.90;93.94;101688.28;5030360;28;20514;-81
2022/01/06 04:06:42;;;;;;;18.98;3.30;;;;;;;0.92;93.70;101691.84;5028313;28;20022;-81
2022/01/06 04:09:07;;;;;;;20.73;4.43;;;;;;;0.92;94.34;101692.72;5006543;28;20095;-80
2022/01/06 04:11:33;;;;;;;15.52;2.75;;;;;;;0.90;93.76;101696.13;5004236;28;20029;-81
2022/01/06 04:13:59;;;;;;;13.63;2.78;;;;;;;0.86;93.21;101695.13;5006033;28;20531;-80
2022/01/06 04:16:26;;;;;;;15.60;2.90;;;;;;;0.85;94.03;101693.38;5036690;28;20017;-80
2022/01/06 04:18:52;;;;;;;17.42;3.00;;;;;;;0.86;93.55;101703.81;5021067;28;20132;-80
2022/01/06 04:21:17;;;;;;;19.55;3.60;;;;;;;0.86;93.70;101709.03;5024292;28;20072;-81
2022/01/06 04:23:43;;;;;;;16.90;3.20;;;;;;;0.85;93.26;101709.00;5022072;28;20041;-80
2022/01/06 04:26:09;;;;;;;19.45;3.28;;;;;;;0.84;93.55;101715.94;5025083;28;20076;-80
2022/01/06 04:28:36;;;;;;;16.70;3.85;;;;;;;0.83;93.74;101708.06;5039156;28;20063;-80
2022/01/06 04:31:02;;;;;;;19.05;2.53;;;;;;;0.81;93.73;101718.44;5028590;28;20167;-80
2022/01/06 04:33:27;;;;;;;19.05;3.45;;;;;;;0.81;93.43;101714.94;5037309;28;20017;-80
2022/01/06 04:35:53;;;;;;;18.08;3.53;;;;;;;0.79;93.14;101722.75;5030636;28;20139;-80
2022/01/06 04:38:19;;;;;;;15.00;2.70;;;;;;;0.78;93.62;101717.47;5021247;28;20048;-80
2022/01/06 04:40:44;;;;;;;28.52;4.72;;;;;;;0.79;93.75;101717.53;5005234;28;20417;-80
2022/01/06 04:43:10;;;;;;;15.60;3.03;;;;;;;0.78;93.48;101728.78;5006174;28;20044;-80
2022/01/06 04:45:35;;;;;;;19.80;3.10;;;;;;;0.74;92.70;101726.00;5009536;28;20108;-80
2022/01/06 04:48:01;;;;;;;17.60;3.47;;;;;;;0.73;93.41;101727.75;5005296;28;20043;-80
2022/01/06 04:50:26;;;;;;;30.00;4.43;;;;;;;0.69;93.58;101727.59;5010923;28;20041;-80
2022/01/06 04:52:52;;;;;;;15.35;3.53;;;;;;;0.66;93.08;101730.97;5009086;28;20059;-81
2022/01/06 04:55:18;;;;;;;19.38;3.15;;;;;;;0.63;93.55;101730.88;5020799;28;20428;-80
2022/01/06 04:57:43;;;;;;;25.98;3.25;;;;;;;0.60;93.20;101742.09;5007264;28;20042;-80
2022/01/06 05:00:09;;;;;;;16.60;4.13;;;;;;;0.60;93.91;101733.41;5004646;28;20496;-80
2022/01/06 05:02:34;;;;;;;24.83;3.75;;;;;;;0.60;93.19;101738.63;5038944;28;20499;-80
2022/01/06 05:05:00;;;;;;;18.58;3.00;;;;;;;0.58;93.67;101735.06;5038493;28;20083;-80
2022/01/06 05:07:25;;;;;;;22.40;3.75;;;;;;;0.58;93.36;101746.38;5038190;28;20108;-80
2022/01/06 05:09:51;;;;;;;20.17;3.50;;;;;;;0.57;93.30;101751.53;5022431;28;20033;-80
2022/01/06 05:12:17;;;;;;;16.58;3.08;;;;;;;0.55;93.50;101756.69;5019861;28;20029;-80
2022/01/06 05:14:42;;;;;;;18.75;3.25;;;;;;;0.54;93.38;101751.44;5047830;28;20064;-80
2022/01/06 05:17:08;;;;;;;17.35;3.75;;;;;;;0.50;93.18;101754.78;4999743;28;20037;-80
2022/01/06 05:19:34;;;;;;;26.48;3.65;;;;;;;0.51;93.01;101761.75;5031880;28;20495;-81
2022/01/06 05:22:00;;;;;;;13.20;3.05;;;;;;;0.49;92.93;101763.41;5015514;28;20082;-80
2022/01/06 05:24:26;;;;;;;13.50;3.08;;;;;;;0.49;93.11;101760.81;5031585;28;20037;-81
2022/01/06 05:26:56;;;;;;;16.98;2.90;;;;;;;0.43;92.68;101767.59;5048369;28;20043;-81
2022/01/06 05:29:23;;;;;;;20.52;3.63;;;;;;;0.41;92.74;101763.16;5031589;28;20033;-81
2022/01/06 05:31:49;;;;;;;12.85;2.60;;;;;;;0.39;92.78;101760.50;5015591;28;20041;-81
2022/01/06 05:34:15;;;;;;;18.25;3.10;;;;;;;0.37;92.87;101777.81;5031973;28;20037;-81
2022/01/06 05:36:41;;;;;;;23.35;3.33;;;;;;;0.34;92.61;101774.19;4998193;28;20476;-81
2022/01/06 05:39:07;;;;;;;16.77;3.78;;;;;;;0.31;93.15;101780.19;5031364;28;20037;-80
2022/01/06 05:41:33;;;;;;;18.50;3.00;;;;;;;0.31;92.86;101782.78;5031552;28;20496;-81
2022/01/06 05:43:58;;;;;;;17.55;3.70;;;;;;;0.32;93.10;101786.28;5030984;28;20041;-81
2022/01/06 05:46:24;;;;;;;17.77;3.15;;;;;;;0.32;93.08;101788.88;5031046;28;20106;-80
2022/01/06 05:48:50;;;;;;;14.85;2.85;;;;;;;0.29;92.63;101779.25;5033392;28;20140;-81
2022/01/06 05:51:15;;;;;;;18.38;3.72;;;;;;;0.27;93.24;101790.44;5034821;28;20052;-81
2022/01/06 05:53:41;;;;;;;17.48;3.20;;;;;;;0.25;93.17;101789.50;5035413;28;20166;-80
2022/01/06 05:56:07;;;;;;;17.38;2.85;;;;;;;0.20;93.34;101791.97;5051886;28;20071;-81
2022/01/06 05:58:32;;;;;;;24.27;3.67;;;;;;;0.19;93.26;101791.06;5034650;28;20045;-80
2022/01/06 06:00:58;;;;;;;20.15;3.53;;;;;;;0.17;93.19;101797.97;5034960;28;20045;-80
2022/01/06 06:03:27;;;;;;;12.95;2.95;;;;;;;0.17;93.25;101805.78;5034889;28;20052;-80
2022/01/06 06:05:54;;;;;;;18.13;3.47;;;;;;;0.14;92.99;101800.44;5035492;28;20051;-80
2022/01/06 06:08:19;;;;;;;9.85;3.28;;;;;;;0.10;93.06;101811.59;5002540;28;20047;-80
2022/01/06 06:10:45;;;;;;;13.73;3.35;;;;;;;0.08;93.30;101810.63;5035808;28;20045;-80
2022/01/06 06:13:10;;;;;;;22.90;3.92;;;;;;;0.08;93.19;101814.97;5018391;28;20523;-80
2022/01/06 06:15:36;;;;;;;17.10;3.25;;;;;;;0.06;93.40;101814.91;5021339;28;20056;-80
2022/01/06 06:18:06;;;;;;;14.82;3.00;;;;;;;0.04;93.06;101820.88;5049511;28;20036;-80
2022/01/06 06:20:32;;;;;;;14.52;3.33;;;;;;;0.04;93.22;101823.50;5051817;28;20072;-80
2022/01/06 06:23:01;;;;;;;22.83;4.72;;;;;;;-0.03;93.24;101825.84;5051548;28;20033;-80
2022/01/06 06:25:26;;;;;;;16.20;3.72;;;;;;;0.01;93.67;101832.06;4998462;28;20025;-80
2022/01/06 06:27:52;;;;;;;15.63;3.42;;;;;;;0.02;93.62;101822.53;5031607;28;20034;-80
2022/01/06 06:30:18;;;;;;;19.80;4.13;;;;;;;0.01;93.97;101832.06;5015119;28;20424;-80
2022/01/06 06:32:44;;;;;;;15.05;3.33;;;;;;;0.01;93.80;101831.19;5031519;28;20417;-80
2022/01/06 06:35:10;;;;;;;13.63;3.00;;;;;;;-0.02;93.86;101832.84;5031206;28;20038;-80
2022/01/06 06:37:36;;;;;;;24.80;3.85;;;;;;;-0.02;93.99;101837.19;5014244;28;20572;-80
2022/01/06 06:40:02;;;;;;;15.50;3.88;;;;;;;-0.06;93.70;101828.34;5032505;28;20108;-80
2022/01/06 06:42:28;;;;;;;18.60;3.60;;;;;;;-0.07;93.49;101839.59;5014760;28;20481;-80
2022/01/06 06:44:54;;;;;;;16.13;3.38;;;;;;;-0.09;93.18;101842.97;5030659;28;20112;-80
2022/01/06 06:47:20;;;;;;;18.48;3.60;;;;;;;-0.09;93.36;101843.88;5030706;28;20545;-80
2022/01/06 06:49:46;;;;;;;17.33;3.08;;;;;;;-0.10;93.38;101851.59;5014975;28;20488;-79
2022/01/06 06:52:11;;;;;;;14.77;3.30;;;;;;;-0.11;93.92;101853.31;5014751;28;20495;-79
2022/01/06 06:54:37;;;;;;;15.60;4.78;;;;;;;-0.14;92.88;101852.34;5014855;28;20128;-79
2022/01/06 06:57:02;;;;;;;14.80;3.90;;;;;;;-0.19;93.00;101854.75;5014901;28;20478;-80
2022/01/06 06:59:28;;;;;;;11.45;3.45;;;;;;;-0.24;92.58;101857.19;5014816;28;20068;-79
2022/01/06 07:01:53;;;;;;;13.60;3.28;;;;;;;-0.32;92.51;101849.91;4998269;28;20131;-80
2022/01/06 07:04:19;;;;;;;17.27;3.78;;;;;;;-0.35;92.67;101860.19;4998124;28;20091;-79
2022/01/06 07:06:44;;;;;;;15.55;3.75;;;;;;;-0.41;92.10;101862.56;5014498;28;20029;-80
2022/01/06 07:09:10;;;;;;;15.70;3.35;;;;;;;-0.49;92.14;101870.09;5014205;28;20029;-80
2022/01/06 07:11:35;;;;;;;10.35;2.83;;;;;;;-0.63;92.45;101856.50;5014591;28;20040;-80
2022/01/06 07:14:01;;;;;;;11.98;3.70;;;;;;;-0.60;92.41;101882.63;4997963;28;20049;-80
2022/01/06 07:16:26;;;;;;;15.65;3.22;;;;;;;-0.68;92.58;101877.13;5030880;28;20029;-80
2022/01/06 07:18:52;;;;;;;17.80;4.32;;;;;;;-0.72;92.60;101885.66;5030822;28;20464;-80
2022/01/06 07:21:17;;;;;;;19.20;3.80;;;;;;;-0.76;93.15;101898.47;5014277;28;20053;-80
2022/01/06 07:23:43;;;;;;;12.88;3.08;;;;;;;-0.79;93.10;101895.72;5014649;28;20067;-80
2022/01/06 07:26:08;;;;;;;13.93;3.63;;;;;;;-0.82;92.93;101895.59;5030918;28;20394;-80
2022/01/06 07:28:34;;;;;;;13.55;3.72;;;;;;;-0.82;93.19;101906.00;5013878;28;20339;-80
2022/01/06 07:31:00;;;;;;;14.73;3.45;;;;;;;-0.86;93.11;101912.81;5014942;28;20044;-80
2022/01/06 07:33:26;;;;;;;18.75;3.88;;;;;;;-0.90;92.89;101903.97;5014461;28;20044;-80
2022/01/06 07:35:52;;;;;;;13.10;3.30;;;;;;;-0.97;92.86;101898.44;4998102;28;20033;-80
2022/01/06 07:38:17;;;;;;;18.45;3.45;;;;;;;-0.99;92.86;101906.19;5030299;28;20033;-81
2022/01/06 07:40:44;;;;;;;17.75;3.75;;;;;;;-1.01;93.33;101913.03;5030769;28;20053;-80
2022/01/06 07:43:10;;;;;;;19.23;4.00;;;;;;;-1.03;93.49;101911.19;5030524;28;20061;-81
2022/01/06 07:45:36;;;;;;;16.17;3.55;;;;;;;-1.08;93.21;101906.69;5030350;28;20038;-81
2022/01/06 07:48:04;;;;;;;13.63;3.45;;;;;;;-1.12;93.79;101906.50;5015651;28;20063;-81
2022/01/06 07:50:32;;;;;;;15.30;3.67;;;;;;;-1.15;93.66;101911.56;5014268;28;20156;-81
2022/01/06 07:52:58;;;;;;;14.57;3.50;;;;;;;-1.18;93.53;101908.84;5031563;28;20029;-81
2022/01/06 07:55:24;;;;;;;14.07;4.13;;;;;;;-1.19;93.39;101912.25;5014060;28;20546;-81
2022/01/06 07:57:50;;;;;;;12.57;3.67;;;;;;;-1.21;93.67;101907.00;5030132;28;20073;-80
2022/01/06 08:00:17;;;;;;;22.08;3.67;;;;;;;-1.22;93.74;101912.13;5031585;28;20052;-80
2022/01/06 08:02:44;;;;;;;13.75;3.65;;;;;;;-1.20;94.05;101916.56;5014160;28;20450;-80
2022/01/06 08:05:11;;;;;;;11.13;3.35;;;;;;;-1.23;93.96;101907.75;5030035;28;20484;-80
2022/01/06 08:07:37;;;;;;;13.52;3.78;;;;;;;-1.21;94.07;101914.78;5016263;28;20144;-80
2022/01/06 08:10:03;;;;;;;18.55;5.05;;;;;;;-1.20;94.14;101915.69;5013394;28;20041;-80
2022/01/06 08:12:29;;;;;;;20.45;5.05;;;;;;;-1.18;94.18;101921.84;5030264;28;20033;-80
2022/01/06 08:14:55;;;;;;;21.73;4.72;;;;;;;-1.15;94.63;101922.84;5030177;28;20444;-80
2022/01/06 08:17:20;;;;;;;16.63;4.70;;;;;;;-1.17;94.74;101921.00;5031774;28;20040;-80
2022/01/06 08:19:47;;;;;;;15.63;5.40;;;;;;;-1.14;94.91;101929.84;5022623;28;20152;-80
2022/01/06 08:22:13;;;;;;;17.85;4.68;;;;;;;-1.14;95.22;101924.63;5017284;28;20037;-80
2022/01/06 08:24:39;;;;;;;23.50;5.13;;;;;;;-1.13;95.37;101926.41;5049667;28;20040;-80
2022/01/06 08:27:08;;;;;;;23.40;5.63;;;;;;;-1.11;94.93;101923.88;5013183;28;20350;-80
2022/01/06 08:29:35;;;;;;;20.17;5.63;;;;;;;-1.10;95.42;101923.91;4997620;28;20037;-80
2022/01/06 08:32:01;;;;;;;35.25;5.50;;;;;;;-1.10;95.28;101926.53;4996895;28;20033;-80
2022/01/06 08:34:26;;;;;;;21.52;6.28;;;;;;;-1.02;95.55;101932.03;4997224;28;20400;-80
2022/01/06 08:36:53;;;;;;;24.42;5.90;;;;;;;-0.94;96.08;101928.09;5033966;28;20422;-80
2022/01/06 08:39:19;;;;;;;22.15;5.25;;;;;;;-0.84;96.46;101931.06;4997348;28;20025;-80
2022/01/06 08:41:45;;;;;;;12.27;5.47;;;;;;;-0.74;96.88;101934.13;5029579;28;20355;-80
2022/01/06 08:44:10;;;;;;;20.63;6.13;;;;;;;-0.63;97.57;101933.69;5029318;28;20446;-80
2022/01/06 08:46:36;;;;;;;27.52;6.43;;;;;;;-0.57;97.67;101937.44;5013346;28;20449;-80
2022/01/06 08:49:04;;;;;;;20.17;6.95;;;;;;;-0.50;97.85;101952.44;5015601;28;20136;-80
2022/01/06 08:51:29;;;;;;;25.80;5.95;;;;;;;-0.44;98.03;101941.41;5022929;28;20511;-80
2022/01/06 08:53:55;;;;;;;18.05;6.10;;;;;;;-0.38;97.49;101945.97;4996667;28;20042;-80
2022/01/06 08:56:20;;;;;;;25.83;5.97;;;;;;;-0.32;97.65;101941.91;4996822;28;20037;-80
2022/01/06 08:58:46;;;;;;;24.23;6.40;;;;;;;-0.31;98.22;101933.25;5013531;28;20052;-80
2022/01/06 09:01:12;;;;;;;20.95;5.43;;;;;;;-0.20;97.44;101940.59;5029567;28;20041;-80
2022/01/06 09:03:37;;;;;;;25.98;6.10;;;;;;;-0.14;97.85;101940.88;5017069;28;20481;-80
2022/01/06 09:06:03;;;;;;;24.00;5.25;;;;;;;-0.08;97.54;101941.97;5014558;28;20072;-80
2022/01/06 09:08:29;;;;;;;20.35;5.22;;;;;;;-0.04;97.93;101949.09;5013791;28;20496;-80
2022/01/06 09:10:55;;;;;;;26.95;5.35;;;;;;;0.04;97.87;101951.97;5038497;28;20159;-80
2022/01/06 09:13:21;;;;;;;17.15;4.90;;;;;;;0.10;97.88;101962.66;5049188;28;20041;-80
2022/01/06 09:15:46;;;;;;;21.80;5.05;;;;;;;0.17;97.79;101953.34;5048864;28;20469;-80
2022/01/06 09:18:12;;;;;;;24.58;4.75;;;;;;;0.24;97.90;101964.88;5050605;28;20033;-80
2022/01/06 09:20:37;;;;;;;19.70;4.80;;;;;;;0.29;97.52;101955.53;5049036;28;20107;-80
2022/01/06 09:23:03;;;;;;;23.48;6.22;;;;;;;0.35;97.55;101959.25;5035923;28;20051;-80
2022/01/06 09:25:29;;;;;;;21.38;4.45;;;;;;;0.43;97.79;101964.75;5046691;28;20045;-79
2022/01/06 09:27:54;;;;;;;20.30;4.72;;;;;;;0.49;97.60;101958.88;5032421;28;20074;-79
2022/01/06 09:30:23;;;;;;;16.23;4.45;;;;;;;0.55;97.43;101954.78;5032618;28;20489;-79
2022/01/06 09:32:49;;;;;;;22.75;4.57;;;;;;;0.60;97.83;101965.41;5034051;28;20077;-78
2022/01/06 09:35:15;;;;;;;19.73;4.82;;;;;;;0.67;97.52;101966.47;5032680;28;20067;-80
2022/01/06 09:37:41;;;;;;;22.30;4.72;;;;;;;0.75;97.48;101978.97;4999925;28;20437;-81
2022/01/06 09:40:09;;;;;;;18.90;5.35;;;;;;;0.83;97.45;101981.88;5016234;28;20450;-80
2022/01/06 09:42:35;;;;;;;19.45;4.85;;;;;;;0.88;97.27;101988.13;5016263;28;20132;-80
2022/01/06 09:45:02;;;;;;;21.75;5.50;;;;;;;0.98;97.54;101984.13;5016035;28;20029;-80
2022/01/06 09:47:29;;;;;;;29.92;5.53;;;;;;;0.98;97.29;101976.31;5015724;28;20437;-81
2022/01/06 09:49:56;;;;;;;19.20;4.53;;;;;;;1.06;97.12;101985.28;5032548;28;20040;-81
2022/01/06 09:52:22;;;;;;;20.65;5.32;;;;;;;1.16;97.01;101989.09;5032106;28;20054;-81
2022/01/06 09:54:48;;;;;;;16.88;4.45;;;;;;;1.20;96.82;101986.66;5035894;28;20043;-80
2022/01/06 09:57:14;;;;;;;20.20;4.53;;;;;;;1.28;97.15;101994.75;5035613;28;20041;-81
2022/01/06 09:59:43;;;;;;;32.58;5.75;;;;;;;1.35;97.13;101985.41;5019260;28;20082;-81
2022/01/06 10:02:16;;;;;;;20.90;5.80;;;;;;;1.42;96.64;101983.06;5035077;28;20032;-81
2022/01/06 10:04:43;;;;;;;19.17;5.43;;;;;;;1.50;96.36;101985.94;5035095;28;20025;-81
2022/01/06 10:07:12;;;;;;;30.17;6.63;;;;;;;1.53;95.82;101979.94;5035479;28;20389;-81
2022/01/06 10:09:39;;;;;;;21.88;4.57;;;;;;;1.62;96.23;101981.13;5035182;28;20024;-81
2022/01/06 10:12:11;;;;;;;22.45;5.93;;;;;;;1.70;95.53;101987.47;5051104;28;20044;-81
2022/01/06 10:14:44;;;;;;;22.63;5.53;;;;;;;1.79;95.83;101988.63;5035169;28;20239;-81
2022/01/06 10:17:13;;;;;;;22.60;5.70;;;;;;;1.84;95.79;101980.09;5052416;28;20047;-81
2022/01/06 10:19:40;;;;;;;21.10;5.57;;;;;;;1.99;95.63;101981.44;5052197;28;20027;-82
2022/01/06 10:22:15;;;;;;;19.52;5.50;;;;;;;2.06;95.44;101979.06;5053695;28;20136;-81
2022/01/06 10:24:44;;;;;;;20.75;5.18;;;;;;;2.12;95.69;101974.00;5035288;28;20079;-81
2022/01/06 10:27:11;;;;;;;19.48;4.95;;;;;;;2.25;94.67;101971.75;5035523;28;20047;-81
2022/01/06 10:29:38;;;;;;;17.90;4.35;;;;;;;2.35;94.54;101968.63;5052060;28;20136;-81
2022/01/06 10:32:05;;;;;;;16.98;4.43;;;;;;;2.46;94.84;101976.75;5035618;28;20033;-81
2022/01/06 10:34:36;;;;;;;17.45;4.95;;;;;;;2.56;95.03;101969.22;5035047;28;20136;-81
2022/01/06 10:37:03;;;;;;;20.60;5.22;;;;;;;2.64;93.95;101971.19;5035368;28;20121;-82
2022/01/06 10:39:40;;;;;;;21.30;4.47;;;;;;;2.69;93.50;101960.00;5051847;28;20048;-81
2022/01/06 10:42:06;;;;;;;32.83;4.95;;;;;;;2.71;93.02;101962.66;5034999;28;20063;-82
2022/01/06 10:44:32;;;;;;;18.38;4.38;;;;;;;2.70;92.66;101972.25;5035055;28;20040;-82
2022/01/06 10:46:58;;;;;;;24.67;5.65;;;;;;;2.71;92.61;101965.28;5001692;28;20152;-82
2022/01/06 10:49:24;;;;;;;18.30;5.63;;;;;;;2.74;92.95;101971.47;5018092;28;20485;-81
2022/01/06 10:51:50;;;;;;;22.17;5.03;;;;;;;2.77;93.42;101973.31;5034457;28;20049;-81
2022/01/06 10:54:24;;;;;;;28.23;5.32;;;;;;;2.82;92.69;101968.19;5035367;28;20037;-81
2022/01/06 10:57:07;;;;;;;22.42;5.43;;;;;;;2.83;92.18;101968.25;4998022;28;20040;-81
2022/01/06 10:59:34;;;;;;;13.18;3.92;;;;;;;2.84;91.32;101970.00;5047044;28;20048;-81
2022/01/06 11:02:01;;;;;;;14.98;4.70;;;;;;;2.87;90.86;101972.72;5030013;28;20354;-82
2022/01/06 11:04:28;;;;;;;18.77;4.70;;;;;;;2.93;91.96;101972.88;5012210;28;20128;-82
2022/01/06 11:06:54;;;;;;;16.42;4.40;;;;;;;2.97;91.94;101960.78;5029841;28;20034;-82
2022/01/06 11:09:20;;;;;;;20.17;5.03;;;;;;;3.05;91.70;101964.50;4995935;28;20092;-81
2022/01/06 11:14:25;;;;;;;23.60;4.68;;;;;;;3.16;91.32;101954.28;5031067;28;20584;-82
2022/01/06 11:16:50;;;;;;;15.18;4.35;;;;;;;3.22;91.40;101957.09;5012831;28;20073;-82
2022/01/06 11:19:16;;;;;;;22.58;4.63;;;;;;;3.28;91.23;101953.72;5029905;28;20064;-81
2022/01/06 11:21:45;;;;;;;17.88;5.03;;;;;;;3.36;91.63;101958.34;4997284;28;20381;-82
2022/01/06 11:24:17;;;;;;;29.38;5.68;;;;;;;3.44;91.24;101954.16;5029871;28;20037;-83
2022/01/06 11:27:15;;;;;;;20.13;4.93;;;;;;;3.49;91.19;101941.19;5029983;28;20142;-82
2022/01/06 11:29:42;;;;;;;15.52;4.85;;;;;;;3.63;90.88;101949.38;4985923;28;20464;-82
2022/01/06 11:32:23;;;;;;;20.77;5.35;;;;;;;3.71;90.30;101941.69;5029804;28;20136;-83